sensor_id;sensor_type;location;lat;lon;timestamp;pressure;altitude;pressure_sealevel;temperature;humidity
17649;BME280;8943;51.110;-4.158;2023-07-16T00:01:16;100104.06;;;20.31;50.91
17649;BME280;8943;51.110;-4.158;2023-07-16T00:07:01;100123.00;;;20.31;50.68
17649;BME280;8943;51.110;-4.158;2023-07-16T00:09:38;100121.31;;;20.30;50.74
17649;BME280;8943;51.110;-4.158;2023-07-16T00:12:27;100166.06;;;20.33;50.66
17649;BME280;8943;51.110;-4.158;2023-07-16T00:18:13;100121.31;;;20.30;50.41
17649;BME280;8943;51.110;-4.158;2023-07-16T00:21:04;100121.38;;;20.37;50.49
17649;BME280;8943;51.110;-4.158;2023-07-16T00:23:40;100153.66;;;20.39;49.84
17649;BME280;8943;51.110;-4.158;2023-07-16T00:26:26;100139.03;;;20.33;49.88
17649;BME280;8943;51.110;-4.158;2023-07-16T00:44:34;100155.56;;;20.23;49.63
17649;BME280;8943;51.110;-4.158;2023-07-16T00:47:12;100191.22;;;20.12;49.19
17649;BME280;8943;51.110;-4.158;2023-07-16T00:49:42;100147.16;;;20.18;48.85
17649;BME280;8943;51.110;-4.158;2023-07-16T00:55:44;100153.91;;;20.08;49.18
17649;BME280;8943;51.110;-4.158;2023-07-16T01:01:49;100157.81;;;20.05;49.30
17649;BME280;8943;51.110;-4.158;2023-07-16T01:04:21;100159.50;;;20.06;49.03
17649;BME280;8943;51.110;-4.158;2023-07-16T01:07:08;100177.78;;;20.04;48.68
17649;BME280;8943;51.110;-4.158;2023-07-16T01:09:45;100165.94;;;20.05;48.71
17649;BME280;8943;51.110;-4.158;2023-07-16T01:12:21;100174.50;;;20.09;48.04
17649;BME280;8943;51.110;-4.158;2023-07-16T01:15:15;100167.63;;;20.06;48.10
17649;BME280;8943;51.110;-4.158;2023-07-16T01:18:18;100169.28;;;20.07;48.53
17649;BME280;8943;51.110;-4.158;2023-07-16T01:21:14;100161.81;;;20.09;48.57
17649;BME280;8943;51.110;-4.158;2023-07-16T01:24:44;100168.81;;;20.03;48.95
17649;BME280;8943;51.110;-4.158;2023-07-16T01:28:02;100172.16;;;20.05;48.17
17649;BME280;8943;51.110;-4.158;2023-07-16T01:39:41;100160.69;;;20.18;48.92
17649;BME280;8943;51.110;-4.158;2023-07-16T01:59:20;100187.75;;;20.18;49.17
17649;BME280;8943;51.110;-4.158;2023-07-16T02:01:56;100188.69;;;20.25;48.65
17649;BME280;8943;51.110;-4.158;2023-07-16T02:04:38;100186.63;;;20.27;48.62
17649;BME280;8943;51.110;-4.158;2023-07-16T02:08:00;100174.28;;;20.25;48.81
17649;BME280;8943;51.110;-4.158;2023-07-16T02:10:58;100205.91;;;20.24;49.06
17649;BME280;8943;51.110;-4.158;2023-07-16T02:22:58;100223.94;;;20.17;49.67
17649;BME280;8943;51.110;-4.158;2023-07-16T02:35:32;100198.38;;;20.20;50.11
17649;BME280;8943;51.110;-4.158;2023-07-16T02:38:04;100198.47;;;20.26;50.57
17649;BME280;8943;51.110;-4.158;2023-07-16T02:40:51;100198.38;;;20.20;50.43
17649;BME280;8943;51.110;-4.158;2023-07-16T02:44:29;100199.88;;;20.22;50.45
17649;BME280;8943;51.110;-4.158;2023-07-16T02:55:25;100196.34;;;20.07;51.15
17649;BME280;8943;51.110;-4.158;2023-07-16T02:58:23;100202.31;;;20.02;51.38
17649;BME280;8943;51.110;-4.158;2023-07-16T03:01:13;100224.78;;;20.03;51.85
17649;BME280;8943;51.110;-4.158;2023-07-16T03:04:09;100211.06;;;20.04;51.97
17649;BME280;8943;51.110;-4.158;2023-07-16T03:07:10;100215.56;;;20.12;51.53
17649;BME280;8943;51.110;-4.158;2023-07-16T03:09:57;100213.88;;;20.11;51.61
17649;BME280;8943;51.110;-4.158;2023-07-16T03:15:46;100210.22;;;19.74;53.54
17649;BME280;8943;51.110;-4.158;2023-07-16T03:18:29;100216.19;;;19.47;54.57
17649;BME280;8943;51.110;-4.158;2023-07-16T03:21:03;100211.28;;;19.27;55.34
17649;BME280;8943;51.110;-4.158;2023-07-16T03:35:57;100229.34;;;19.27;55.48
17649;BME280;8943;51.110;-4.158;2023-07-16T03:38:26;100241.13;;;19.34;55.54
17649;BME280;8943;51.110;-4.158;2023-07-16T03:41:09;100256.06;;;19.45;55.07
17649;BME280;8943;51.110;-4.158;2023-07-16T03:44:06;100247.91;;;19.53;54.48
17649;BME280;8943;51.110;-4.158;2023-07-16T03:46:47;100273.34;;;19.59;54.31
17649;BME280;8943;51.110;-4.158;2023-07-16T03:49:24;100253.09;;;19.63;53.73
17649;BME280;8943;51.110;-4.158;2023-07-16T03:51:54;100276.84;;;19.67;53.40
17649;BME280;8943;51.110;-4.158;2023-07-16T03:54:25;100254.50;;;19.73;53.11
17649;BME280;8943;51.110;-4.158;2023-07-16T03:56:54;100258.22;;;19.72;52.65
17649;BME280;8943;51.110;-4.158;2023-07-16T03:59:27;100260.84;;;19.80;52.24
17649;BME280;8943;51.110;-4.158;2023-07-16T04:02:15;100269.50;;;19.76;51.98
17649;BME280;8943;51.110;-4.158;2023-07-16T04:04:53;100269.50;;;19.76;51.53
17649;BME280;8943;51.110;-4.158;2023-07-16T04:08:00;100262.69;;;19.80;51.25
17649;BME280;8943;51.110;-4.158;2023-07-16T04:10:32;100275.38;;;19.79;51.07
17649;BME280;8943;51.110;-4.158;2023-07-16T04:13:04;100292.63;;;19.78;50.98
17649;BME280;8943;51.110;-4.158;2023-07-16T04:15:37;100272.59;;;19.88;50.74
17649;BME280;8943;51.110;-4.158;2023-07-16T04:18:24;100282.59;;;19.87;51.32
17649;BME280;8943;51.110;-4.158;2023-07-16T04:21:04;100276.63;;;19.92;50.94
17649;BME280;8943;51.110;-4.158;2023-07-16T04:23:39;100278.66;;;19.90;51.08
17649;BME280;8943;51.110;-4.158;2023-07-16T04:26:34;100292.31;;;19.96;50.84
17649;BME280;8943;51.110;-4.158;2023-07-16T04:29:17;100288.38;;;19.99;50.59
17649;BME280;8943;51.110;-4.158;2023-07-16T04:31:50;100293.13;;;19.97;50.49
17649;BME280;8943;51.110;-4.158;2023-07-16T04:34:44;100295.28;;;20.01;49.50
17649;BME280;8943;51.110;-4.158;2023-07-16T04:37:28;100282.97;;;19.99;49.77
17649;BME280;8943;51.110;-4.158;2023-07-16T04:40:18;100285.31;;;20.02;50.15
17649;BME280;8943;51.110;-4.158;2023-07-16T04:43:04;100292.03;;;20.06;49.66
17649;BME280;8943;51.110;-4.158;2023-07-16T04:45:37;100293.22;;;20.03;49.75
17649;BME280;8943;51.110;-4.158;2023-07-16T04:48:06;100302.47;;;20.09;49.67
17649;BME280;8943;51.110;-4.158;2023-07-16T04:50:39;100300.31;;;20.04;49.43
17649;BME280;8943;51.110;-4.158;2023-07-16T04:53:22;100299.00;;;20.00;49.46
17649;BME280;8943;51.110;-4.158;2023-07-16T04:55:56;100318.41;;;20.04;49.70
17649;BME280;8943;51.110;-4.158;2023-07-16T04:58:24;100295.38;;;20.08;49.87
17649;BME280;8943;51.110;-4.158;2023-07-16T05:01:13;100309.94;;;20.07;49.51
17649;BME280;8943;51.110;-4.158;2023-07-16T05:03:43;100309.25;;;20.05;49.58
17649;BME280;8943;51.110;-4.158;2023-07-16T05:06:14;100303.69;;;20.06;49.82
17649;BME280;8943;51.110;-4.158;2023-07-16T05:08:45;100326.16;;;20.07;49.93
17649;BME280;8943;51.110;-4.158;2023-07-16T05:11:16;100317.03;;;20.08;49.56
17649;BME280;8943;51.110;-4.158;2023-07-16T05:13:59;100327.84;;;20.08;49.95
17649;BME280;8943;51.110;-4.158;2023-07-16T05:16:28;100324.50;;;20.06;49.87
17649;BME280;8943;51.110;-4.158;2023-07-16T05:18:57;100336.97;;;20.07;50.37
17649;BME280;8943;51.110;-4.158;2023-07-16T05:21:26;100328.03;;;20.06;50.21
17649;BME280;8943;51.110;-4.158;2023-07-16T05:24:02;100329.50;;;20.09;50.34
17649;BME280;8943;51.110;-4.158;2023-07-16T05:26:47;100337.28;;;20.12;50.44
17649;BME280;8943;51.110;-4.158;2023-07-16T05:29:22;100350.03;;;20.18;50.40
17649;BME280;8943;51.110;-4.158;2023-07-16T05:31:51;100344.44;;;20.20;50.57
17649;BME280;8943;51.110;-4.158;2023-07-16T05:34:24;100343.06;;;20.24;50.57
17649;BME280;8943;51.110;-4.158;2023-07-16T05:36:55;100359.56;;;20.29;50.73
17649;BME280;8943;51.110;-4.158;2023-07-16T05:39:26;100362.19;;;20.37;50.42
17649;BME280;8943;51.110;-4.158;2023-07-16T05:41:58;100354.63;;;20.32;50.16
17649;BME280;8943;51.110;-4.158;2023-07-16T05:44:41;100366.78;;;20.37;50.39
17649;BME280;8943;51.110;-4.158;2023-07-16T05:47:13;100372.47;;;20.42;50.00
17649;BME280;8943;51.110;-4.158;2023-07-16T05:49:43;100359.97;;;20.41;50.29
17649;BME280;8943;51.110;-4.158;2023-07-16T05:52:14;100364.16;;;20.43;50.36
17649;BME280;8943;51.110;-4.158;2023-07-16T05:54:53;100350.81;;;20.42;50.41
17649;BME280;8943;51.110;-4.158;2023-07-16T05:57:39;100368.50;;;20.52;50.29
17649;BME280;8943;51.110;-4.158;2023-07-16T06:00:13;100371.00;;;20.54;50.45
17649;BME280;8943;51.110;-4.158;2023-07-16T06:02:46;100366.25;;;20.56;50.55
17649;BME280;8943;51.110;-4.158;2023-07-16T06:05:42;100378.41;;;20.60;50.38
17649;BME280;8943;51.110;-4.158;2023-07-16T06:11:05;100391.19;;;20.66;50.20
17649;BME280;8943;51.110;-4.158;2023-07-16T06:13:44;100400.34;;;20.65;50.55
17649;BME280;8943;51.110;-4.158;2023-07-16T06:16:15;100387.91;;;20.56;51.11
17649;BME280;8943;51.110;-4.158;2023-07-16T06:18:48;100387.69;;;20.43;51.02
17649;BME280;8943;51.110;-4.158;2023-07-16T06:21:26;100381.97;;;20.23;52.05
17649;BME280;8943;51.110;-4.158;2023-07-16T06:23:58;100389.94;;;20.01;52.51
17649;BME280;8943;51.110;-4.158;2023-07-16T06:26:27;100398.84;;;19.87;53.32
17649;BME280;8943;51.110;-4.158;2023-07-16T06:28:57;100412.22;;;19.80;53.95
17649;BME280;8943;51.110;-4.158;2023-07-16T06:31:27;100416.69;;;19.73;53.98
17649;BME280;8943;51.110;-4.158;2023-07-16T06:33:56;100410.56;;;19.79;54.55
17649;BME280;8943;51.110;-4.158;2023-07-16T06:36:24;100407.78;;;19.88;54.08
17649;BME280;8943;51.110;-4.158;2023-07-16T06:38:53;100424.25;;;20.01;54.04
17649;BME280;8943;51.110;-4.158;2023-07-16T06:41:21;100420.81;;;20.07;54.00
17649;BME280;8943;51.110;-4.158;2023-07-16T06:43:50;100431.69;;;20.22;53.22
17649;BME280;8943;51.110;-4.158;2023-07-16T06:46:24;100426.75;;;20.25;52.92
17649;BME280;8943;51.110;-4.158;2023-07-16T06:48:55;100442.41;;;20.30;52.66
17649;BME280;8943;51.110;-4.158;2023-07-16T06:51:24;100424.94;;;20.41;52.43
17649;BME280;8943;51.110;-4.158;2023-07-16T06:54:00;100432.97;;;20.49;52.29
17649;BME280;8943;51.110;-4.158;2023-07-16T06:56:31;100442.69;;;20.58;52.47
17649;BME280;8943;51.110;-4.158;2023-07-16T06:58:59;100441.50;;;20.61;52.19
17649;BME280;8943;51.110;-4.158;2023-07-16T07:01:44;100427.50;;;20.57;51.98
17649;BME280;8943;51.110;-4.158;2023-07-16T07:04:37;100424.97;;;20.55;52.20
17649;BME280;8943;51.110;-4.158;2023-07-16T07:07:15;100452.69;;;20.57;52.55
17649;BME280;8943;51.110;-4.158;2023-07-16T07:09:51;100462.69;;;20.57;52.79
17649;BME280;8943;51.110;-4.158;2023-07-16T07:12:40;100471.28;;;20.61;52.41
17649;BME280;8943;51.110;-4.158;2023-07-16T07:15:35;100487.94;;;20.49;52.42
17649;BME280;8943;51.110;-4.158;2023-07-16T07:56:11;100520.03;;;18.56;63.01
17649;BME280;8943;51.110;-4.158;2023-07-16T07:58:40;100532.50;;;18.57;63.25
17649;BME280;8943;51.110;-4.158;2023-07-16T08:01:09;100521.72;;;18.65;62.93
17649;BME280;8943;51.110;-4.158;2023-07-16T08:03:41;100526.78;;;18.68;63.32
17649;BME280;8943;51.110;-4.158;2023-07-16T08:06:11;100524.75;;;18.78;63.37
17649;BME280;8943;51.110;-4.158;2023-07-16T08:08:41;100530.13;;;18.95;63.40
17649;BME280;8943;51.110;-4.158;2023-07-16T08:11:12;100532.78;;;19.11;63.38
17649;BME280;8943;51.110;-4.158;2023-07-16T08:13:41;100544.09;;;19.23;63.36
17649;BME280;8943;51.110;-4.158;2023-07-16T08:16:13;100537.78;;;19.39;63.46
17649;BME280;8943;51.110;-4.158;2023-07-16T08:18:42;100535.00;;;19.55;62.75
17649;BME280;8943;51.110;-4.158;2023-07-16T08:21:10;100545.81;;;19.63;62.52
17649;BME280;8943;51.110;-4.158;2023-07-16T08:23:43;100550.00;;;19.74;62.37
17649;BME280;8943;51.110;-4.158;2023-07-16T08:26:13;100552.13;;;19.87;61.96
17649;BME280;8943;51.110;-4.158;2023-07-16T08:28:42;100544.13;;;19.93;61.68
17649;BME280;8943;51.110;-4.158;2023-07-16T08:31:11;100557.78;;;20.00;61.35
17649;BME280;8943;51.110;-4.158;2023-07-16T08:33:40;100552.03;;;20.03;60.58
17649;BME280;8943;51.110;-4.158;2023-07-16T08:36:09;100541.31;;;20.10;60.51
17649;BME280;8943;51.110;-4.158;2023-07-16T08:38:38;100550.97;;;20.12;60.14
17649;BME280;8943;51.110;-4.158;2023-07-16T08:41:07;100550.88;;;20.20;60.46
17649;BME280;8943;51.110;-4.158;2023-07-16T08:43:42;100558.94;;;20.28;59.96
17649;BME280;8943;51.110;-4.158;2023-07-16T08:46:11;100570.56;;;20.37;59.43
17649;BME280;8943;51.110;-4.158;2023-07-16T08:48:40;100571.91;;;20.41;58.67
17649;BME280;8943;51.110;-4.158;2023-07-16T08:51:09;100566.28;;;20.43;58.66
17649;BME280;8943;51.110;-4.158;2023-07-16T08:53:38;100575.09;;;20.45;57.47
17649;BME280;8943;51.110;-4.158;2023-07-16T08:56:07;100584.88;;;20.46;57.79
17649;BME280;8943;51.110;-4.158;2023-07-16T08:58:36;100578.78;;;20.52;57.94
17649;BME280;8943;51.110;-4.158;2023-07-16T09:01:08;100591.72;;;20.65;56.78
17649;BME280;8943;51.110;-4.158;2023-07-16T09:03:37;100576.22;;;20.73;56.67
17649;BME280;8943;51.110;-4.158;2023-07-16T09:06:07;100595.34;;;20.95;56.88
17649;BME280;8943;51.110;-4.158;2023-07-16T09:08:37;100592.19;;;21.06;55.37
17649;BME280;8943;51.110;-4.158;2023-07-16T09:11:11;100581.00;;;21.09;55.07
17649;BME280;8943;51.110;-4.158;2023-07-16T09:13:45;100582.75;;;21.17;53.87
17649;BME280;8943;51.110;-4.158;2023-07-16T09:16:17;100592.88;;;21.23;54.59
17649;BME280;8943;51.110;-4.158;2023-07-16T09:18:46;100597.31;;;21.39;54.65
17649;BME280;8943;51.110;-4.158;2023-07-16T09:21:14;100587.38;;;21.46;53.50
17649;BME280;8943;51.110;-4.158;2023-07-16T09:23:44;100592.81;;;21.46;53.47
17649;BME280;8943;51.110;-4.158;2023-07-16T09:26:12;100598.34;;;21.52;54.04
17649;BME280;8943;51.110;-4.158;2023-07-16T09:28:42;100600.19;;;21.52;52.18
17649;BME280;8943;51.110;-4.158;2023-07-16T09:31:10;100602.91;;;21.52;52.45
17649;BME280;8943;51.110;-4.158;2023-07-16T09:33:40;100612.53;;;21.54;52.88
17649;BME280;8943;51.110;-4.158;2023-07-16T09:36:08;100615.91;;;21.56;52.17
17649;BME280;8943;51.110;-4.158;2023-07-16T09:38:38;100597.13;;;21.55;51.60
17649;BME280;8943;51.110;-4.158;2023-07-16T09:41:07;100608.78;;;21.70;51.38
17649;BME280;8943;51.110;-4.158;2023-07-16T09:43:36;100605.03;;;21.71;50.07
17649;BME280;8943;51.110;-4.158;2023-07-16T09:46:06;100622.19;;;21.72;49.44
17649;BME280;8943;51.110;-4.158;2023-07-16T09:48:35;100607.31;;;21.68;48.56
17649;BME280;8943;51.110;-4.158;2023-07-16T09:51:06;100610.09;;;21.59;48.12
17649;BME280;8943;51.110;-4.158;2023-07-16T09:53:36;100626.00;;;21.48;48.83
17649;BME280;8943;51.110;-4.158;2023-07-16T09:56:05;100613.47;;;21.47;49.98
17649;BME280;8943;51.110;-4.158;2023-07-16T09:58:34;100614.69;;;21.59;49.26
17649;BME280;8943;51.110;-4.158;2023-07-16T10:01:03;100610.59;;;21.63;49.85
17649;BME280;8943;51.110;-4.158;2023-07-16T10:03:50;100617.47;;;21.66;49.32
17649;BME280;8943;51.110;-4.158;2023-07-16T10:06:22;100611.63;;;21.77;49.53
17649;BME280;8943;51.110;-4.158;2023-07-16T10:08:51;100634.41;;;21.82;48.89
17649;BME280;8943;51.110;-4.158;2023-07-16T10:11:19;100624.59;;;21.81;47.80
17649;BME280;8943;51.110;-4.158;2023-07-16T10:13:51;100637.41;;;21.88;47.71
17649;BME280;8943;51.110;-4.158;2023-07-16T10:16:21;100640.75;;;21.90;47.45
17649;BME280;8943;51.110;-4.158;2023-07-16T10:18:58;100638.06;;;21.90;47.36
17649;BME280;8943;51.110;-4.158;2023-07-16T10:21:37;100635.16;;;21.91;47.19
17649;BME280;8943;51.110;-4.158;2023-07-16T10:24:16;100638.22;;;22.03;47.01
17649;BME280;8943;51.110;-4.158;2023-07-16T10:26:48;100640.56;;;22.06;47.34
17649;BME280;8943;51.110;-4.158;2023-07-16T10:29:16;100658.97;;;22.10;47.58
17649;BME280;8943;51.110;-4.158;2023-07-16T10:31:46;100651.59;;;22.19;47.24
17649;BME280;8943;51.110;-4.158;2023-07-16T10:34:15;100654.41;;;22.26;47.19
17649;BME280;8943;51.110;-4.158;2023-07-16T10:36:45;100653.91;;;22.37;47.30
17649;BME280;8943;51.110;-4.158;2023-07-16T10:39:15;100647.59;;;22.51;48.08
17649;BME280;8943;51.110;-4.158;2023-07-16T10:41:44;100664.09;;;22.71;47.78
17649;BME280;8943;51.110;-4.158;2023-07-16T10:44:14;100659.28;;;22.73;46.40
17649;BME280;8943;51.110;-4.158;2023-07-16T10:46:42;100651.09;;;22.67;45.03
17649;BME280;8943;51.110;-4.158;2023-07-16T10:49:11;100657.47;;;22.59;44.96
17649;BME280;8943;51.110;-4.158;2023-07-16T10:51:40;100665.00;;;22.57;45.51
17649;BME280;8943;51.110;-4.158;2023-07-16T10:54:10;100662.66;;;22.54;45.62
17649;BME280;8943;51.110;-4.158;2023-07-16T10:56:39;100672.66;;;22.53;46.10
17649;BME280;8943;51.110;-4.158;2023-07-16T10:59:10;100652.81;;;22.53;46.31
17649;BME280;8943;51.110;-4.158;2023-07-16T11:01:40;100659.88;;;22.69;46.87
17649;BME280;8943;51.110;-4.158;2023-07-16T11:04:10;100658.97;;;22.83;46.87
17649;BME280;8943;51.110;-4.158;2023-07-16T11:06:51;100655.59;;;22.96;47.12
17649;BME280;8943;51.110;-4.158;2023-07-16T11:09:45;100676.53;;;23.02;45.39
17649;BME280;8943;51.110;-4.158;2023-07-16T11:12:18;100673.19;;;23.00;45.52
17649;BME280;8943;51.110;-4.158;2023-07-16T11:14:55;100676.94;;;22.99;45.75
17649;BME280;8943;51.110;-4.158;2023-07-16T11:17:28;100681.84;;;22.88;45.87
17649;BME280;8943;51.110;-4.158;2023-07-16T11:20:15;100695.72;;;22.79;45.27
17649;BME280;8943;51.110;-4.158;2023-07-16T11:22:52;100678.88;;;22.69;45.41
17649;BME280;8943;51.110;-4.158;2023-07-16T11:25:28;100680.19;;;22.73;46.05
17649;BME280;8943;51.110;-4.158;2023-07-16T11:28:01;100695.59;;;22.87;45.59
17649;BME280;8943;51.110;-4.158;2023-07-16T11:30:30;100691.94;;;22.95;45.89
17649;BME280;8943;51.110;-4.158;2023-07-16T11:33:20;100687.41;;;23.02;45.62
17649;BME280;8943;51.110;-4.158;2023-07-16T11:35:50;100684.56;;;23.10;45.46
17649;BME280;8943;51.110;-4.158;2023-07-16T11:38:36;100688.94;;;23.11;44.86
17649;BME280;8943;51.110;-4.158;2023-07-16T11:41:23;100684.44;;;23.18;44.93
17649;BME280;8943;51.110;-4.158;2023-07-16T11:43:53;100683.81;;;23.23;44.72
17649;BME280;8943;51.110;-4.158;2023-07-16T11:46:38;100678.94;;;23.39;45.57
17649;BME280;8943;51.110;-4.158;2023-07-16T11:49:15;100682.78;;;23.52;45.10
17649;BME280;8943;51.110;-4.158;2023-07-16T11:51:47;100689.75;;;23.61;44.84
17649;BME280;8943;51.110;-4.158;2023-07-16T11:54:15;100679.81;;;23.68;45.09
17649;BME280;8943;51.110;-4.158;2023-07-16T11:57:09;100674.63;;;23.80;45.60
17649;BME280;8943;51.110;-4.158;2023-07-16T11:59:42;100673.47;;;23.96;45.88
17649;BME280;8943;51.110;-4.158;2023-07-16T12:02:14;100671.63;;;24.03;45.49
17649;BME280;8943;51.110;-4.158;2023-07-16T12:05:31;100673.06;;;23.99;43.49
17649;BME280;8943;51.110;-4.158;2023-07-16T12:08:47;100681.81;;;23.87;43.87
17649;BME280;8943;51.110;-4.158;2023-07-16T12:11:25;100691.84;;;23.87;43.61
17649;BME280;8943;51.110;-4.158;2023-07-16T12:14:12;100678.88;;;23.89;43.76
17649;BME280;8943;51.110;-4.158;2023-07-16T12:16:45;100687.72;;;23.98;42.66
17649;BME280;8943;51.110;-4.158;2023-07-16T12:22:42;100677.75;;;24.11;42.61
17649;BME280;8943;51.110;-4.158;2023-07-16T12:25:32;100691.16;;;24.20;42.02
17649;BME280;8943;51.110;-4.158;2023-07-16T12:28:01;100700.41;;;24.25;42.12
17649;BME280;8943;51.110;-4.158;2023-07-16T12:33:13;100691.50;;;24.38;41.97
17649;BME280;8943;51.110;-4.158;2023-07-16T12:42:54;100691.03;;;24.34;42.31
17649;BME280;8943;51.110;-4.158;2023-07-16T12:45:50;100696.56;;;24.48;42.23
17649;BME280;8943;51.110;-4.158;2023-07-16T12:48:25;100699.28;;;24.48;41.07
17649;BME280;8943;51.110;-4.158;2023-07-16T12:51:08;100715.97;;;24.31;40.58
17649;BME280;8943;51.110;-4.158;2023-07-16T12:53:44;100720.47;;;24.11;41.23
17649;BME280;8943;51.110;-4.158;2023-07-16T12:56:27;100705.56;;;24.07;42.08
17649;BME280;8943;51.110;-4.158;2023-07-16T12:59:15;100703.88;;;24.06;41.94
17649;BME280;8943;51.110;-4.158;2023-07-16T13:02:16;100705.00;;;24.18;41.55
17649;BME280;8943;51.110;-4.158;2023-07-16T13:07:39;100723.19;;;24.59;42.23
17649;BME280;8943;51.110;-4.158;2023-07-16T13:10:14;100709.41;;;24.67;41.85
17649;BME280;8943;51.110;-4.158;2023-07-16T13:12:50;100720.13;;;24.88;41.28
17649;BME280;8943;51.110;-4.158;2023-07-16T13:15:36;100723.94;;;25.01;40.10
17649;BME280;8943;51.110;-4.158;2023-07-16T13:18:06;100723.31;;;24.99;39.15
17649;BME280;8943;51.110;-4.158;2023-07-16T13:20:37;100718.69;;;25.06;39.23
17649;BME280;8943;51.110;-4.158;2023-07-16T13:23:07;100728.78;;;25.05;40.37
17649;BME280;8943;51.110;-4.158;2023-07-16T13:25:37;100728.81;;;25.19;40.28
17649;BME280;8943;51.110;-4.158;2023-07-16T13:28:07;100725.03;;;25.26;39.71
17649;BME280;8943;51.110;-4.158;2023-07-16T13:30:46;100714.34;;;25.31;40.18
17649;BME280;8943;51.110;-4.158;2023-07-16T13:33:18;100713.69;;;25.42;40.97
17649;BME280;8943;51.110;-4.158;2023-07-16T13:35:47;100723.56;;;25.77;40.61
17649;BME280;8943;51.110;-4.158;2023-07-16T13:38:17;100727.09;;;26.04;39.20
17649;BME280;8943;51.110;-4.158;2023-07-16T13:40:46;100733.31;;;26.24;38.71
17649;BME280;8943;51.110;-4.158;2023-07-16T13:43:20;100715.59;;;26.40;37.42
17649;BME280;8943;51.110;-4.158;2023-07-16T13:46:02;100716.00;;;26.57;37.83
17649;BME280;8943;51.110;-4.158;2023-07-16T13:48:33;100727.88;;;26.76;36.06
17649;BME280;8943;51.110;-4.158;2023-07-16T13:51:36;100746.19;;;26.75;34.25
17649;BME280;8943;51.110;-4.158;2023-07-16T13:54:30;100721.03;;;26.60;34.50
17649;BME280;8943;51.110;-4.158;2023-07-16T14:00:08;100737.94;;;26.24;35.38
17649;BME280;8943;51.110;-4.158;2023-07-16T14:08:26;100734.22;;;26.11;35.63
17649;BME280;8943;51.110;-4.158;2023-07-16T14:11:28;100743.03;;;26.13;35.18
17649;BME280;8943;51.110;-4.158;2023-07-16T14:14:00;100758.00;;;25.84;34.53
17649;BME280;8943;51.110;-4.158;2023-07-16T14:16:34;100749.16;;;25.42;35.24
17649;BME280;8943;51.110;-4.158;2023-07-16T14:19:10;100741.81;;;25.10;36.40
17649;BME280;8943;51.110;-4.158;2023-07-16T14:21:42;100741.34;;;25.00;36.87
17649;BME280;8943;51.110;-4.158;2023-07-16T14:24:52;100739.63;;;24.85;37.34
17649;BME280;8943;51.110;-4.158;2023-07-16T14:27:32;100745.94;;;24.86;37.55
17649;BME280;8943;51.110;-4.158;2023-07-16T14:30:01;100761.00;;;24.88;38.06
17649;BME280;8943;51.110;-4.158;2023-07-16T14:32:33;100775.34;;;25.04;38.64
17649;BME280;8943;51.110;-4.158;2023-07-16T14:35:02;100745.13;;;24.99;38.80
17649;BME280;8943;51.110;-4.158;2023-07-16T14:37:30;100752.72;;;25.10;38.69
17649;BME280;8943;51.110;-4.158;2023-07-16T14:39:59;100757.34;;;25.36;38.32
17649;BME280;8943;51.110;-4.158;2023-07-16T14:42:45;100764.69;;;25.42;38.54
17649;BME280;8943;51.110;-4.158;2023-07-16T14:45:24;100771.66;;;25.38;38.19
17649;BME280;8943;51.110;-4.158;2023-07-16T14:47:57;100762.97;;;25.08;38.13
17649;BME280;8943;51.110;-4.158;2023-07-16T14:50:38;100783.25;;;24.92;37.56
17649;BME280;8943;51.110;-4.158;2023-07-16T14:53:08;100770.63;;;24.71;37.23
17649;BME280;8943;51.110;-4.158;2023-07-16T14:55:37;100780.13;;;24.40;36.52
17649;BME280;8943;51.110;-4.158;2023-07-16T14:58:11;100774.09;;;24.17;36.93
17649;BME280;8943;51.110;-4.158;2023-07-16T15:00:46;100770.50;;;24.10;37.95
17649;BME280;8943;51.110;-4.158;2023-07-16T15:03:14;100758.75;;;24.09;38.65
17649;BME280;8943;51.110;-4.158;2023-07-16T15:05:45;100767.63;;;24.25;38.62
17649;BME280;8943;51.110;-4.158;2023-07-16T15:08:36;100770.13;;;24.20;39.07
17649;BME280;8943;51.110;-4.158;2023-07-16T15:11:10;100764.91;;;24.18;39.90
17649;BME280;8943;51.110;-4.158;2023-07-16T15:13:43;100768.13;;;24.35;40.33
17649;BME280;8943;51.110;-4.158;2023-07-16T15:16:12;100771.03;;;24.33;41.82
17649;BME280;8943;51.110;-4.158;2023-07-16T15:18:43;100761.09;;;24.54;42.05
17649;BME280;8943;51.110;-4.158;2023-07-16T15:21:28;100763.56;;;24.97;40.94
17649;BME280;8943;51.110;-4.158;2023-07-16T15:23:57;100770.75;;;25.11;40.33
17649;BME280;8943;51.110;-4.158;2023-07-16T15:26:39;100761.44;;;24.92;41.12
17649;BME280;8943;51.110;-4.158;2023-07-16T15:29:16;100767.44;;;24.61;41.24
17649;BME280;8943;51.110;-4.158;2023-07-16T15:31:45;100761.19;;;24.26;41.67
17649;BME280;8943;51.110;-4.158;2023-07-16T15:34:15;100760.88;;;24.14;42.69
17649;BME280;8943;51.110;-4.158;2023-07-16T15:36:45;100753.66;;;24.34;44.20
17649;BME280;8943;51.110;-4.158;2023-07-16T15:39:28;100768.75;;;24.78;42.92
17649;BME280;8943;51.110;-4.158;2023-07-16T15:42:02;100766.81;;;25.33;40.33
17649;BME280;8943;51.110;-4.158;2023-07-16T15:45:17;100759.88;;;25.24;39.95
17649;BME280;8943;51.110;-4.158;2023-07-16T15:48:00;100792.38;;;25.32;39.86
17649;BME280;8943;51.110;-4.158;2023-07-16T15:50:43;100778.13;;;25.70;38.41
17649;BME280;8943;51.110;-4.158;2023-07-16T15:53:15;100758.16;;;26.16;37.36
17649;BME280;8943;51.110;-4.158;2023-07-16T15:55:54;100764.16;;;26.96;37.15
17649;BME280;8943;51.110;-4.158;2023-07-16T16:10:32;100783.47;;;27.89;32.99
17649;BME280;8943;51.110;-4.158;2023-07-16T16:13:07;100793.16;;;27.35;33.88
17649;BME280;8943;51.110;-4.158;2023-07-16T16:16:07;100797.75;;;27.10;33.47
17649;BME280;8943;51.110;-4.158;2023-07-16T16:19:18;100805.88;;;27.23;34.30
17649;BME280;8943;51.110;-4.158;2023-07-16T16:21:48;100786.88;;;27.60;32.91
17649;BME280;8943;51.110;-4.158;2023-07-16T16:24:18;100802.28;;;28.04;32.34
17649;BME280;8943;51.110;-4.158;2023-07-16T16:27:06;100800.59;;;28.65;31.92
17649;BME280;8943;51.110;-4.158;2023-07-16T16:29:41;100796.31;;;29.17;31.29
17649;BME280;8943;51.110;-4.158;2023-07-16T16:32:30;100807.19;;;29.66;30.00
17649;BME280;8943;51.110;-4.158;2023-07-16T16:35:02;100812.72;;;29.78;28.83
17649;BME280;8943;51.110;-4.158;2023-07-16T16:37:33;100811.53;;;30.09;29.79